sensor_id;sensor_type;location;lat;lon;timestamp;pressure;altitude;pressure_sealevel;temperature;humidity
57606;BME280;43430;48.204;11.556;2023-05-25T00:00:07;96260.88;;;10.59;100.00
57606;BME280;43430;48.204;11.556;2023-05-25T00:02:34;96256.03;;;10.56;100.00
57606;BME280;43430;48.204;11.556;2023-05-25T00:04:59;96249.59;;;10.52;100.00
57606;BME280;43430;48.204;11.556;2023-05-25T00:07:25;96260.94;;;10.53;100.00
57606;BME280;43430;48.204;11.556;2023-05-25T00:09:50;96255.22;;;10.56;100.00
57606;BME280;43430;48.204;11.556;2023-05-25T00:12:16;96256.88;;;10.57;100.00
57606;BME280;43430;48.204;11.556;2023-05-25T00:14:41;96262.16;;;10.57;100.00
57606;BME280;43430;48.204;11.556;2023-05-25T00:17:06;96259.31;;;10.52;100.00
57606;BME280;43430;48.204;11.556;2023-05-25T00:19:34;96258.91;;;10.55;100.00
57606;BME280;43430;48.204;11.556;2023-05-25T00:22:00;96260.94;;;10.53;100.00
57606;BME280;43430;48.204;11.556;2023-05-25T00:24:29;96263.72;;;10.64;100.00
57606;BME280;43430;48.204;11.556;2023-05-25T00:26:57;96267.16;;;10.65;100.00
57606;BME280;43430;48.204;11.556;2023-05-25T00:29:22;96274.63;;;10.68;100.00
57606;BME280;43430;48.204;11.556;2023-05-25T00:31:48;96269.34;;;10.68;100.00
57606;BME280;43430;48.204;11.556;2023-05-25T00:34:15;96262.00;;;10.70;100.00
57606;BME280;43430;48.204;11.556;2023-05-25T00:36:41;96263.66;;;10.71;100.00
57606;BME280;43430;48.204;11.556;2023-05-25T00:39:07;96268.13;;;10.71;100.00
57606;BME280;43430;48.204;11.556;2023-05-25T00:41:33;96263.66;;;10.71;100.00
57606;BME280;43430;48.204;11.556;2023-05-25T00:44:05;96266.06;;;10.73;100.00
57606;BME280;43430;48.204;11.556;2023-05-25T00:46:33;96259.56;;;10.75;100.00
57606;BME280;43430;48.204;11.556;2023-05-25T00:48:58;96256.91;;;10.75;100.00
57606;BME280;43430;48.204;11.556;2023-05-25T00:51:25;96250.66;;;10.69;100.00
57606;BME280;43430;48.204;11.556;2023-05-25T00:53:51;96247.44;;;10.67;100.00
57606;BME280;43430;48.204;11.556;2023-05-25T00:56:37;96241.63;;;10.59;100.00
57606;BME280;43430;48.204;11.556;2023-05-25T00:59:05;96240.28;;;10.50;100.00
57606;BME280;43430;48.204;11.556;2023-05-25T01:01:36;96237.06;;;10.48;100.00
57606;BME280;43430;48.204;11.556;2023-05-25T01:04:06;96236.88;;;10.42;100.00
57606;BME280;43430;48.204;11.556;2023-05-25T01:06:35;96233.25;;;10.43;100.00
57606;BME280;43430;48.204;11.556;2023-05-25T01:09:03;96232.22;;;10.44;100.00
57606;BME280;43430;48.204;11.556;2023-05-25T01:11:35;96238.94;;;10.40;100.00
57606;BME280;43430;48.204;11.556;2023-05-25T01:14:01;96251.66;;;10.50;100.00
57606;BME280;43430;48.204;11.556;2023-05-25T01:16:28;96246.00;;;10.47;100.00
57606;BME280;43430;48.204;11.556;2023-05-25T01:18:54;96245.34;;;10.51;100.00
57606;BME280;43430;48.204;11.556;2023-05-25T01:21:22;96245.50;;;10.56;100.00
57606;BME280;43430;48.204;11.556;2023-05-25T01:26:43;96245.13;;;10.53;100.00
57606;BME280;43430;48.204;11.556;2023-05-25T01:29:10;96246.41;;;10.43;100.00
57606;BME280;43430;48.204;11.556;2023-05-25T01:31:38;96249.22;;;10.49;100.00
57606;BME280;43430;48.204;11.556;2023-05-25T01:34:04;96252.03;;;10.54;100.00
57606;BME280;43430;48.204;11.556;2023-05-25T01:36:29;96246.53;;;10.55;100.00
57606;BME280;43430;48.204;11.556;2023-05-25T01:38:56;96255.88;;;10.51;100.00
57606;BME280;43430;48.204;11.556;2023-05-25T01:41:22;96250.38;;;10.53;100.00
57606;BME280;43430;48.204;11.556;2023-05-25T01:43:47;96249.06;;;10.43;100.00
57606;BME280;43430;48.204;11.556;2023-05-25T01:46:42;96254.53;;;10.42;100.00
57606;BME280;43430;48.204;11.556;2023-05-25T01:49:27;96258.84;;;10.36;100.00
57606;BME280;43430;48.204;11.556;2023-05-25T01:52:34;96263.88;;;10.38;100.00
57606;BME280;43430;48.204;11.556;2023-05-25T01:55:00;96267.09;;;10.47;100.00
57606;BME280;43430;48.204;11.556;2023-05-25T01:57:28;96269.53;;;10.41;100.00
57606;BME280;43430;48.204;11.556;2023-05-25T01:59:54;96279.69;;;10.38;100.00
57606;BME280;43430;48.204;11.556;2023-05-25T02:02:24;96269.00;;;10.33;100.00
57606;BME280;43430;48.204;11.556;2023-05-25T02:04:52;96277.09;;;10.31;100.00
57606;BME280;43430;48.204;11.556;2023-05-25T02:07:18;96279.31;;;10.34;100.00
57606;BME280;43430;48.204;11.556;2023-05-25T02:09:43;96270.34;;;10.42;100.00
57606;BME280;43430;48.204;11.556;2023-05-25T02:12:09;96268.69;;;10.48;100.00
57606;BME280;43430;48.204;11.556;2023-05-25T02:14:34;96267.09;;;10.47;100.00
57606;BME280;43430;48.204;11.556;2023-05-25T02:16:59;96260.03;;;10.40;100.00
57606;BME280;43430;48.204;11.556;2023-05-25T02:19:26;96257.81;;;10.37;100.00
57606;BME280;43430;48.204;11.556;2023-05-25T02:21:52;96255.00;;;10.32;100.00
57606;BME280;43430;48.204;11.556;2023-05-25T02:24:17;96259.09;;;10.21;100.00
57606;BME280;43430;48.204;11.556;2023-05-25T02:26:42;96251.41;;;10.27;100.00
57606;BME280;43430;48.204;11.556;2023-05-25T02:29:08;96257.84;;;10.24;100.00
57606;BME280;43430;48.204;11.556;2023-05-25T02:31:33;96255.44;;;10.29;100.00
57606;BME280;43430;48.204;11.556;2023-05-25T02:33:58;96255.44;;;10.29;100.00
57606;BME280;43430;48.204;11.556;2023-05-25T02:36:24;96255.41;;;10.36;100.00
57606;BME280;43430;48.204;11.556;2023-05-25T02:38:50;96256.59;;;10.40;100.00
57606;BME280;43430;48.204;11.556;2023-05-25T02:41:20;96248.69;;;10.40;100.00
57606;BME280;43430;48.204;11.556;2023-05-25T02:43:46;96254.31;;;10.43;100.00
57606;BME280;43430;48.204;11.556;2023-05-25T02:46:11;96253.47;;;10.50;100.00
57606;BME280;43430;48.204;11.556;2023-05-25T02:48:37;96260.88;;;10.59;100.00
57606;BME280;43430;48.204;11.556;2023-05-25T02:51:02;96266.53;;;10.63;100.00
57606;BME280;43430;48.204;11.556;2023-05-25T02:53:28;96272.66;;;10.63;100.00
57606;BME280;43430;48.204;11.556;2023-05-25T02:55:53;96273.03;;;10.67;100.00
57606;BME280;43430;48.204;11.556;2023-05-25T02:58:19;96262.44;;;10.74;100.00
57606;BME280;43430;48.204;11.556;2023-05-25T03:00:44;96270.59;;;10.65;100.00
57606;BME280;43430;48.204;11.556;2023-05-25T03:03:10;96264.09;;;10.68;100.00
57606;BME280;43430;48.204;11.556;2023-05-25T03:05:36;96263.47;;;10.66;100.00
57606;BME280;43430;48.204;11.556;2023-05-25T03:08:02;96265.25;;;10.72;100.00
57606;BME280;43430;48.204;11.556;2023-05-25T03:10:28;96270.06;;;10.82;100.00
57606;BME280;43430;48.204;11.556;2023-05-25T03:12:53;96270.63;;;10.84;100.00
57606;BME280;43430;48.204;11.556;2023-05-25T03:15:19;96272.28;;;10.85;100.00
57606;BME280;43430;48.204;11.556;2023-05-25T03:17:44;96277.91;;;10.88;100.00
57606;BME280;43430;48.204;11.556;2023-05-25T03:20:10;96279.09;;;10.92;100.00
57606;BME280;43430;48.204;11.556;2023-05-25T03:22:35;96277.50;;;10.91;100.00
57606;BME280;43430;48.204;11.556;2023-05-25T03:25:02;96286.16;;;10.99;100.00
57606;BME280;43430;48.204;11.556;2023-05-25T03:27:27;96283.91;;;11.21;100.00
57606;BME280;43430;48.204;11.556;2023-05-25T03:29:53;96288.31;;;11.27;100.00
57606;BME280;43430;48.204;11.556;2023-05-25T03:32:18;96292.94;;;11.31;100.00
57606;BME280;43430;48.204;11.556;2023-05-25T03:34:43;96295.59;;;11.31;100.00
57606;BME280;43430;48.204;11.556;2023-05-25T03:37:09;96292.06;;;11.37;100.00
57606;BME280;43430;48.204;11.556;2023-05-25T03:39:34;96293.13;;;11.36;100.00
57606;BME280;43430;48.204;11.556;2023-05-25T03:42:00;96290.03;;;11.39;100.00
57606;BME280;43430;48.204;11.556;2023-05-25T03:44:25;96293.25;;;11.41;100.00
57606;BME280;43430;48.204;11.556;2023-05-25T03:46:50;96284.75;;;11.39;100.00
57606;BME280;43430;48.204;11.556;2023-05-25T03:49:16;96294.28;;;11.40;100.00
57606;BME280;43430;48.204;11.556;2023-05-25T03:51:43;96300.38;;;11.41;100.00
57606;BME280;43430;48.204;11.556;2023-05-25T03:54:08;96292.69;;;11.39;100.00
57606;BME280;43430;48.204;11.556;2023-05-25T03:56:34;96296.50;;;11.44;100.00
57606;BME280;43430;48.204;11.556;2023-05-25T03:58:59;96301.97;;;11.42;100.00
57606;BME280;43430;48.204;11.556;2023-05-25T04:01:25;96296.75;;;11.35;100.00
57606;BME280;43430;48.204;11.556;2023-05-25T04:03:51;96298.75;;;11.40;100.00
57606;BME280;43430;48.204;11.556;2023-05-25T04:06:19;96307.78;;;11.51;100.00
57606;BME280;43430;48.204;11.556;2023-05-25T04:08:45;96304.31;;;11.32;100.00
57606;BME280;43430;48.204;11.556;2023-05-25T04:11:10;96306.88;;;11.38;100.00
57606;BME280;43430;48.204;11.556;2023-05-25T04:13:36;96305.88;;;11.39;100.00
57606;BME280;43430;48.204;11.556;2023-05-25T04:16:05;96311.31;;;11.45;100.00
57606;BME280;43430;48.204;11.556;2023-05-25T04:18:30;96313.06;;;11.51;100.00
57606;BME280;43430;48.204;11.556;2023-05-25T04:20:55;96314.97;;;11.44;100.00
57606;BME280;43430;48.204;11.556;2023-05-25T04:23:21;96316.16;;;11.48;100.00
57606;BME280;43430;48.204;11.556;2023-05-25T04:25:47;96309.25;;;11.47;100.00
57606;BME280;43430;48.204;11.556;2023-05-25T04:28:15;96320.38;;;11.49;100.00
57606;BME280;43430;48.204;11.556;2023-05-25T04:30:40;96315.09;;;11.49;100.00
57606;BME280;43430;48.204;11.556;2023-05-25T04:33:06;96316.50;;;11.51;100.00
57606;BME280;43430;48.204;11.556;2023-05-25T04:35:31;96317.06;;;11.60;100.00
57606;BME280;43430;48.204;11.556;2023-05-25T04:37:56;96316.44;;;11.58;100.00
57606;BME280;43430;48.204;11.556;2023-05-25T04:40:22;96317.91;;;11.54;100.00
57606;BME280;43430;48.204;11.556;2023-05-25T04:42:47;96315.28;;;11.54;100.00
57606;BME280;43430;48.204;11.556;2023-05-25T04:45:12;96315.84;;;11.56;100.00
57606;BME280;43430;48.204;11.556;2023-05-25T04:47:41;96322.16;;;11.55;100.00
57606;BME280;43430;48.204;11.556;2023-05-25T04:50:09;96325.41;;;11.57;100.00
57606;BME280;43430;48.204;11.556;2023-05-25T04:52:34;96314.91;;;11.50;100.00
57606;BME280;43430;48.204;11.556;2023-05-25T04:55:00;96325.84;;;11.54;100.00
57606;BME280;43430;48.204;11.556;2023-05-25T04:57:27;96318.97;;;11.53;100.00
57606;BME280;43430;48.204;11.556;2023-05-25T04:59:54;96326.41;;;11.56;100.00
57606;BME280;43430;48.204;11.556;2023-05-25T05:02:20;96328.03;;;11.57;100.00
57606;BME280;43430;48.204;11.556;2023-05-25T05:04:45;96324.66;;;11.68;100.00
57606;BME280;43430;48.204;11.556;2023-05-25T05:07:11;96328.13;;;11.69;100.00
57606;BME280;43430;48.204;11.556;2023-05-25T05:09:36;96330.56;;;11.70;100.00
57606;BME280;43430;48.204;11.556;2023-05-25T05:12:02;96339.28;;;11.71;100.00
57606;BME280;43430;48.204;11.556;2023-05-25T05:14:28;96339.34;;;11.64;100.00
57606;BME280;43430;48.204;11.556;2023-05-25T05:16:53;96346.25;;;11.65;100.00
57606;BME280;43430;48.204;11.556;2023-05-25T05:19:18;96337.50;;;11.64;100.00
57606;BME280;43430;48.204;11.556;2023-05-25T05:21:44;96341.41;;;11.62;100.00
57606;BME280;43430;48.204;11.556;2023-05-25T05:24:09;96345.94;;;11.73;100.00
57606;BME280;43430;48.204;11.556;2023-05-25T05:26:35;96335.66;;;11.83;100.00
57606;BME280;43430;48.204;11.556;2023-05-25T05:29:00;96342.00;;;11.82;100.00
57606;BME280;43430;48.204;11.556;2023-05-25T05:31:26;96340.22;;;11.76;100.00
57606;BME280;43430;48.204;11.556;2023-05-25T05:33:51;96337.34;;;11.84;100.00
57606;BME280;43430;48.204;11.556;2023-05-25T05:36:17;96340.59;;;11.80;100.00
57606;BME280;43430;48.204;11.556;2023-05-25T05:38:43;96344.81;;;11.87;100.00
57606;BME280;43430;48.204;11.556;2023-05-25T05:41:11;96350.78;;;11.76;100.00
57606;BME280;43430;48.204;11.556;2023-05-25T05:43:41;96353.38;;;11.83;100.00
57606;BME280;43430;48.204;11.556;2023-05-25T05:46:11;96348.28;;;11.88;100.00
57606;BME280;43430;48.204;11.556;2023-05-25T05:48:36;96348.03;;;11.90;100.00
57606;BME280;43430;48.204;11.556;2023-05-25T05:51:03;96360.06;;;11.85;100.00
57606;BME280;43430;48.204;11.556;2023-05-25T05:53:29;96351.91;;;11.87;100.00
57606;BME280;43430;48.204;11.556;2023-05-25T05:55:54;96357.13;;;11.94;100.00
57606;BME280;43430;48.204;11.556;2023-05-25T05:58:24;96355.81;;;12.03;100.00
57606;BME280;43430;48.204;11.556;2023-05-25T06:00:52;96354.41;;;12.00;100.00
57606;BME280;43430;48.204;11.556;2023-05-25T06:03:17;96350.53;;;12.03;100.00
57606;BME280;43430;48.204;11.556;2023-05-25T06:05:43;96354.56;;;12.05;100.00
57606;BME280;43430;48.204;11.556;2023-05-25T06:08:08;96358.53;;;11.96;100.00
57606;BME280;43430;48.204;11.556;2023-05-25T06:10:34;96358.09;;;11.99;100.00
57606;BME280;43430;48.204;11.556;2023-05-25T06:13:00;96362.72;;;12.04;100.00
57606;BME280;43430;48.204;11.556;2023-05-25T06:15:25;96353.81;;;12.17;100.00
57606;BME280;43430;48.204;11.556;2023-05-25T06:17:50;96352.41;;;12.14;100.00
57606;BME280;43430;48.204;11.556;2023-05-25T06:20:16;96358.44;;;12.21;100.00
57606;BME280;43430;48.204;11.556;2023-05-25T06:22:41;96352.72;;;12.24;100.00
57606;BME280;43430;48.204;11.556;2023-05-25T06:25:07;96358.00;;;12.24;100.00
57606;BME280;43430;48.204;11.556;2023-05-25T06:27:34;96357.63;;;12.21;100.00
57606;BME280;43430;48.204;11.556;2023-05-25T06:30:00;96361.16;;;12.33;100.00
57606;BME280;43430;48.204;11.556;2023-05-25T06:32:25;96357.84;;;12.38;100.00
57606;BME280;43430;48.204;11.556;2023-05-25T06:34:51;96360.63;;;12.43;100.00
57606;BME280;43430;48.204;11.556;2023-05-25T06:37:16;96363.84;;;12.45;100.00
57606;BME280;43430;48.204;11.556;2023-05-25T06:39:41;96366.19;;;12.53;100.00
57606;BME280;43430;48.204;11.556;2023-05-25T06:42:08;96374.84;;;12.42;100.00
57606;BME280;43430;48.204;11.556;2023-05-25T06:44:34;96370.50;;;12.35;100.00
57606;BME280;43430;48.204;11.556;2023-05-25T06:46:59;96371.06;;;12.38;100.00
57606;BME280;43430;48.204;11.556;2023-05-25T06:49:25;96369.44;;;12.37;100.00
57606;BME280;43430;48.204;11.556;2023-05-25T06:51:51;96373.25;;;12.41;100.00
57606;BME280;43430;48.204;11.556;2023-05-25T06:54:16;96379.22;;;12.36;100.00
57606;BME280;43430;48.204;11.556;2023-05-25T06:56:43;96378.91;;;12.44;100.00
57606;BME280;43430;48.204;11.556;2023-05-25T06:59:09;96376.78;;;12.53;100.00
57606;BME280;43430;48.204;11.556;2023-05-25T07:01:35;96368.31;;;12.44;100.00
57606;BME280;43430;48.204;11.556;2023-05-25T07:04:00;96363.41;;;12.48;100.00
57606;BME280;43430;48.204;11.556;2023-05-25T07:06:26;96370.28;;;12.49;100.00
57606;BME280;43430;48.204;11.556;2023-05-25T07:08:51;96372.63;;;12.57;100.00
57606;BME280;43430;48.204;11.556;2023-05-25T07:11:16;96371.47;;;12.53;100.00
57606;BME280;43430;48.204;11.556;2023-05-25T07:13:44;96377.94;;;12.57;100.00
57606;BME280;43430;48.204;11.556;2023-05-25T07:16:10;96383.66;;;12.54;100.00
57606;BME280;43430;48.204;11.556;2023-05-25T07:18:38;96386.75;;;12.51;100.00
57606;BME280;43430;48.204;11.556;2023-05-25T07:21:03;96381.72;;;12.49;100.00
57606;BME280;43430;48.204;11.556;2023-05-25T07:23:28;96380.78;;;12.55;100.00
57606;BME280;43430;48.204;11.556;2023-05-25T07:25:54;96377.03;;;12.63;100.00
57606;BME280;43430;48.204;11.556;2023-05-25T07:28:19;96380.84;;;12.67;100.00
57606;BME280;43430;48.204;11.556;2023-05-25T07:30:44;96379.00;;;12.68;100.00
57606;BME280;43430;48.204;11.556;2023-05-25T07:33:10;96376.97;;;12.70;100.00
57606;BME280;43430;48.204;11.556;2023-05-25T07:35:35;96372.91;;;12.67;100.00
57606;BME280;43430;48.204;11.556;2023-05-25T07:38:03;96388.59;;;12.80;100.00
57606;BME280;43430;48.204;11.556;2023-05-25T07:40:29;96386.34;;;12.96;100.00
57606;BME280;43430;48.204;11.556;2023-05-25T07:42:55;96385.56;;;13.07;100.00
57606;BME280;43430;48.204;11.556;2023-05-25T07:45:21;96392.34;;;13.03;100.00
57606;BME280;43430;48.204;11.556;2023-05-25T07:47:46;96395.03;;;13.15;100.00
57606;BME280;43430;48.204;11.556;2023-05-25T07:50:13;96392.03;;;13.11;100.00
57606;BME280;43430;48.204;11.556;2023-05-25T07:52:38;96397.88;;;13.13;100.00
57606;BME280;43430;48.204;11.556;2023-05-25T07:55:08;96393.69;;;13.24;100.00
57606;BME280;43430;48.204;11.556;2023-05-25T07:57:34;96397.25;;;13.29;100.00
57606;BME280;43430;48.204;11.556;2023-05-25T07:59:59;96405.22;;;13.29;100.00
57606;BME280;43430;48.204;11.556;2023-05-25T08:02:25;96406.47;;;13.27;100.00
57606;BME280;43430;48.204;11.556;2023-05-25T08:04:50;96407.41;;;13.33;100.00
57606;BME280;43430;48.204;11.556;2023-05-25T08:07:19;96411.63;;;13.22;100.00
57606;BME280;43430;48.204;11.556;2023-05-25T08:09:45;96402.91;;;13.33;100.00
57606;BME280;43430;48.204;11.556;2023-05-25T08:12:10;96407.50;;;13.38;100.00
57606;BME280;43430;48.204;11.556;2023-05-25T08:14:35;96409.38;;;13.49;100.00
57606;BME280;43430;48.204;11.556;2023-05-25T08:17:01;96411.56;;;13.52;100.00
57606;BME280;43430;48.204;11.556;2023-05-25T08:19:27;96414.66;;;13.37;100.00
57606;BME280;43430;48.204;11.556;2023-05-25T08:21:52;96422.03;;;13.35;100.00
57606;BME280;43430;48.204;11.556;2023-05-25T08:24:17;96414.66;;;13.37;100.00
57606;BME280;43430;48.204;11.556;2023-05-25T08:26:43;96410.41;;;13.48;100.00
57606;BME280;43430;48.204;11.556;2023-05-25T08:29:10;96414.09;;;13.47;100.00
57606;BME280;43430;48.204;11.556;2023-05-25T08:31:36;96412.13;;;13.66;100.00
57606;BME280;43430;48.204;11.556;2023-05-25T08:34:02;96410.41;;;13.71;100.00
57606;BME280;43430;48.204;11.556;2023-05-25T08:36:27;96409.84;;;13.69;100.00
57606;BME280;43430;48.204;11.556;2023-05-25T08:38:53;96412.03;;;13.72;100.00
57606;BME280;43430;48.204;11.556;2023-05-25T08:41:18;96411.13;;;13.78;100.00
57606;BME280;43430;48.204;11.556;2023-05-25T08:43:45;96413.66;;;13.73;100.00
57606;BME280;43430;48.204;11.556;2023-05-25T08:46:10;96417.66;;;13.76;100.00
57606;BME280;43430;48.204;11.556;2023-05-25T08:48:37;96417.78;;;13.69;100.00
57606;BME280;43430;48.204;11.556;2023-05-25T08:51:07;96420.56;;;13.74;100.00
57606;BME280;43430;48.204;11.556;2023-05-25T08:53:39;96422.16;;;13.75;100.00
57606;BME280;43430;48.204;11.556;2023-05-25T08:56:25;96427.81;;;13.79;100.00
57606;BME280;43430;48.204;11.556;2023-05-25T08:59:16;96429.78;;;13.84;100.00
57606;BME280;43430;48.204;11.556;2023-05-25T09:01:45;96436.22;;;13.64;100.00
57606;BME280;43430;48.204;11.556;2023-05-25T09:04:11;96444.19;;;13.76;100.00
57606;BME280;43430;48.204;11.556;2023-05-25T09:06:38;96441.19;;;13.84;100.00
57606;BME280;43430;48.204;11.556;2023-05-25T09:09:04;96433.47;;;13.83;100.00
57606;BME280;43430;48.204;11.556;2023-05-25T09:11:30;96438.75;;;13.83;100.00
57606;BME280;43430;48.204;11.556;2023-05-25T09:13:57;96437.03;;;13.88;100.00
57606;BME280;43430;48.204;11.556;2023-05-25T09:16:24;96445.44;;;13.85;100.00
57606;BME280;43430;48.204;11.556;2023-05-25T09:18:50;96437.97;;;13.82;100.00
57606;BME280;43430;48.204;11.556;2023-05-25T09:21:15;96450.88;;;13.90;100.00
57606;BME280;43430;48.204;11.556;2023-05-25T09:23:41;96445.22;;;14.10;100.00
57606;BME280;43430;48.204;11.556;2023-05-25T09:26:07;96445.22;;;14.22;100.00
57606;BME280;43430;48.204;11.556;2023-05-25T09:28:33;96443.47;;;14.16;100.00
57606;BME280;43430;48.204;11.556;2023-05-25T09:30:59;96446.56;;;14.24;100.00
57606;BME280;43430;48.204;11.556;2023-05-25T09:33:25;96445.09;;;14.29;100.00
57606;BME280;43430;48.204;11.556;2023-05-25T09:35:50;96445.19;;;14.34;100.00
57606;BME280;43430;48.204;11.556;2023-05-25T09:38:16;96459.97;;;14.30;100.00
57606;BME280;43430;48.204;11.556;2023-05-25T09:40:41;96458.78;;;14.37;100.00
57606;BME280;43430;48.204;11.556;2023-05-25T09:43:07;96453.94;;;14.46;100.00
57606;BME280;43430;48.204;11.556;2023-05-25T09:45:32;96454.28;;;14.38;100.00
57606;BME280;43430;48.204;11.556;2023-05-25T09:48:00;96464.31;;;14.59;100.00
57606;BME280;43430;48.204;11.556;2023-05-25T09:50:28;96465.53;;;14.80;100.00
57606;BME280;43430;48.204;11.556;2023-05-25T09:52:59;96453.84;;;14.81;100.00
57606;BME280;43430;48.204;11.556;2023-05-25T09:55:27;96457.63;;;14.97;100.00
57606;BME280;43430;48.204;11.556;2023-05-25T09:57:54;96458.28;;;15.04;100.00
57606;BME280;43430;48.204;11.556;2023-05-25T10:00:22;96451.66;;;15.07;100.00
57606;BME280;43430;48.204;11.556;2023-05-25T10:02:48;96459.88;;;15.05;100.00
57606;BME280;43430;48.204;11.556;2023-05-25T10:05:14;96458.34;;;15.09;100.00
57606;BME280;43430;48.204;11.556;2023-05-25T10:07:40;96457.69;;;15.02;100.00
57606;BME280;43430;48.204;11.556;2023-05-25T10:10:07;96463.00;;;15.02;100.00
57606;BME280;43430;48.204;11.556;2023-05-25T10:12:34;96457.84;;;14.95;100.00
57606;BME280;43430;48.204;11.556;2023-05-25T10:15:02;96456.09;;;15.01;100.00
57606;BME280;43430;48.204;11.556;2023-05-25T10:17:29;96458.53;;;15.19;100.00
57606;BME280;43430;48.204;11.556;2023-05-25T10:19:59;96454.59;;;15.22;100.00
57606;BME280;43430;48.204;11.556;2023-05-25T10:25:07;96459.16;;;15.38;100.00
57606;BME280;43430;48.204;11.556;2023-05-25T10:27:45;96455.84;;;15.31;100.00
57606;BME280;43430;48.204;11.556;2023-05-25T10:30:13;96453.41;;;15.30;100.00
57606;BME280;43430;48.204;11.556;2023-05-25T10:32:39;96450.78;;;15.63;100.00
57606;BME280;43430;48.204;11.556;2023-05-25T10:35:05;96442.03;;;15.80;100.00
57606;BME280;43430;48.204;11.556;2023-05-25T10:37:33;96442.31;;;16.00;100.00
57606;BME280;43430;48.204;11.556;2023-05-25T10:39:59;96454.84;;;16.22;100.00
57606;BME280;43430;48.204;11.556;2023-05-25T10:42:25;96440.56;;;16.28;100.00
57606;BME280;43430;48.204;11.556;2023-05-25T10:44:55;96446.16;;;16.09;100.00
57606;BME280;43430;48.204;11.556;2023-05-25T10:47:21;96443.84;;;15.96;100.00
57606;BME280;43430;48.204;11.556;2023-05-25T10:49:52;96446.81;;;16.00;100.00
57606;BME280;43430;48.204;11.556;2023-05-25T10:52:18;96439.00;;;15.93;100.00
57606;BME280;43430;48.204;11.556;2023-05-25T10:54:45;96450.69;;;15.92;100.00
57606;BME280;43430;48.204;11.556;2023-05-25T10:57:17;96450.94;;;16.07;100.00
57606;BME280;43430;48.204;11.556;2023-05-25T10:59:42;96448.28;;;16.07;100.00
57606;BME280;43430;48.204;11.556;2023-05-25T11:02:14;96440.44;;;16.18;100.00
57606;BME280;43430;48.204;11.556;2023-05-25T11:04:39;96454.59;;;16.23;100.00
57606;BME280;43430;48.204;11.556;2023-05-25T11:07:06;96442.22;;;16.34;100.00
57606;BME280;43430;48.204;11.556;2023-05-25T11:09:41;96444.03;;;16.28;100.00
57606;BME280;43430;48.204;11.556;2023-05-25T11:12:19;96436.16;;;16.17;100.00
57606;BME280;43430;48.204;11.556;2023-05-25T11:15:09;96446.56;;;16.40;100.00
57606;BME280;43430;48.204;11.556;2023-05-25T11:17:56;96434.16;;;16.46;100.00
57606;BME280;43430;48.204;11.556;2023-05-25T11:20:28;96436.31;;;16.49;100.00
57606;BME280;43430;48.204;11.556;2023-05-25T11:22:56;96437.84;;;16.45;100.00
57606;BME280;43430;48.204;11.556;2023-05-25T11:28:02;96441.56;;;16.44;100.00
57606;BME280;43430;48.204;11.556;2023-05-25T11:30:28;96436.53;;;16.47;100.00
57606;BME280;43430;48.204;11.556;2023-05-25T11:32:54;96439.81;;;16.54;100.00
57606;BME280;43430;48.204;11.556;2023-05-25T11:35:24;96434.00;;;16.57;100.00
57606;BME280;43430;48.204;11.556;2023-05-25T11:37:50;96427.84;;;16.52;100.00
57606;BME280;43430;48.204;11.556;2023-05-25T11:40:21;96428.34;;;16.49;100.00
57606;BME280;43430;48.204;11.556;2023-05-25T11:42:47;96416.75;;;16.60;100.00
57606;BME280;43430;48.204;11.556;2023-05-25T11:45:13;96416.38;;;16.73;100.00
57606;BME280;43430;48.204;11.556;2023-05-25T11:47:40;96418.56;;;16.76;100.00
57606;BME280;43430;48.204;11.556;2023-05-25T11:50:05;96422.63;;;16.62;100.00
57606;BME280;43430;48.204;11.556;2023-05-25T11:52:31;96426.81;;;16.58;100.00
57606;BME280;43430;48.204;11.556;2023-05-25T11:54:57;96417.91;;;16.47;100.00
57606;BME280;43430;48.204;11.556;2023-05-25T11:57:23;96412.97;;;16.56;100.00
57606;BME280;43430;48.204;11.556;2023-05-25T11:59:54;96409.88;;;16.64;100.00
57606;BME280;43430;48.204;11.556;2023-05-25T12:02:20;96404.53;;;16.86;100.00
57606;BME280;43430;48.204;11.556;2023-05-25T12:04:59;96391.94;;;17.03;100.00
57606;BME280;43430;48.204;11.556;2023-05-25T12:07:29;96393.34;;;17.11;100.00
57606;BME280;43430;48.204;11.556;2023-05-25T12:10:08;96386.44;;;17.15;100.00
57606;BME280;43430;48.204;11.556;2023-05-25T12:12:49;96387.28;;;17.21;100.00
57606;BME280;43430;48.204;11.556;2023-05-25T12:15:23;96386.72;;;17.51;100.00
57606;BME280;43430;48.204;11.556;2023-05-25T12:17:50;96383.22;;;17.45;100.00
57606;BME280;43430;48.204;11.556;2023-05-25T12:20:17;96384.56;;;17.48;100.00
57606;BME280;43430;48.204;11.556;2023-05-25T12:22:43;96382.25;;;17.62;100.00
57606;BME280;43430;48.204;11.556;2023-05-25T12:25:10;96380.66;;;17.61;100.00
57606;BME280;43430;48.204;11.556;2023-05-25T12:27:36;96389.28;;;17.73;100.00
57606;BME280;43430;48.204;11.556;2023-05-25T12:30:03;96382.63;;;17.75;100.00
57606;BME280;43430;48.204;11.556;2023-05-25T12:32:29;96381.63;;;17.82;100.00
57606;BME280;43430;48.204;11.556;2023-05-25T12:35:05;96381.50;;;18.03;100.00
57606;BME280;43430;48.204;11.556;2023-05-25T12:37:31;96377.44;;;17.96;100.00
57606;BME280;43430;48.204;11.556;2023-05-25T12:39:56;96381.00;;;18.12;100.00
57606;BME280;43430;48.204;11.556;2023-05-25T12:42:22;96382.09;;;18.16;100.00
57606;BME280;43430;48.204;11.556;2023-05-25T12:44:54;96374.53;;;18.02;100.00
57606;BME280;43430;48.204;11.556;2023-05-25T12:47:21;96374.09;;;17.73;100.00